createdAt,value
2023-05-19T00:01:01.747Z,100330.91
2023-05-19T00:02:04.394Z,100331.91
2023-05-19T00:03:06.933Z,100327.35
2023-05-19T00:04:10.080Z,100330.72
2023-05-19T00:05:12.929Z,100335.27
2023-05-19T00:06:16.041Z,100338.81
2023-05-19T00:07:18.602Z,100331.72
2023-05-19T00:08:22.669Z,100333.94
2023-05-19T00:09:26.497Z,100331.58
2023-05-19T00:10:30.586Z,100337.32
2023-05-19T00:11:34.573Z,100342.21
2023-05-19T00:12:37.323Z,100335.30
2023-05-19T00:13:40.068Z,100331.94
2023-05-19T00:14:43.119Z,100326.69
2023-05-19T00:15:45.976Z,100334.63
2023-05-19T00:16:49.548Z,100329.05
2023-05-19T00:17:51.957Z,100336.30
2023-05-19T00:18:55.225Z,100335.63
2023-05-19T00:19:57.780Z,100335.63
2023-05-19T00:21:00.484Z,100337.33
2023-05-19T00:22:03.415Z,100335.14
2023-05-19T00:23:05.709Z,100341.21
2023-05-19T00:24:07.948Z,100337.47
2023-05-19T00:25:10.273Z,100341.02
2023-05-19T00:26:13.839Z,100336.66
2023-05-19T00:27:17.219Z,100338.84
2023-05-19T00:28:19.949Z,100333.45
2023-05-19T00:29:22.623Z,100329.90
2023-05-19T00:30:25.230Z,100337.33
2023-05-19T00:31:27.761Z,100339.37
2023-05-19T00:32:31.316Z,100331.42
2023-05-19T00:33:34.229Z,100332.42
2023-05-19T00:34:37.006Z,100338.01
2023-05-19T00:35:39.399Z,100339.01
2023-05-19T00:36:41.841Z,100336.67
2023-05-19T00:37:44.050Z,100342.08
2023-05-19T00:38:46.137Z,100337.83
2023-05-19T00:39:48.721Z,100336.16
2023-05-19T00:40:51.191Z,100336.31
2023-05-19T00:41:53.409Z,100342.41
2023-05-19T00:42:55.740Z,100345.27
2023-05-19T00:43:58.045Z,100342.75
2023-05-19T00:45:00.361Z,100343.75
2023-05-19T00:46:03.508Z,100353.55
2023-05-19T00:47:06.815Z,100343.08
2023-05-19T00:48:09.115Z,100348.48
2023-05-19T00:49:11.437Z,100352.03
2023-05-19T00:50:14.129Z,100354.55
2023-05-19T00:51:17.147Z,100357.09
2023-05-19T00:52:20.180Z,100351.33
2023-05-19T00:53:23.108Z,100353.88
2023-05-19T00:54:25.405Z,100357.42
2023-05-19T00:55:29.127Z,100355.58
2023-05-19T00:56:32.369Z,100361.64
2023-05-19T00:57:36.065Z,100357.24
2023-05-19T00:58:38.399Z,100351.84
2023-05-19T00:59:40.522Z,100361.64
2023-05-19T01:00:43.305Z,100355.39
2023-05-19T01:01:46.678Z,100364.16
2023-05-19T01:02:49.418Z,100362.30
2023-05-19T01:03:52.365Z,100359.61
2023-05-19T01:04:56.566Z,100364.34
2023-05-19T01:05:58.912Z,100365.34
2023-05-19T01:07:01.984Z,100360.79
2023-05-19T01:08:05.663Z,100355.39
2023-05-19T01:09:07.936Z,100360.79
2023-05-19T01:10:11.072Z,100363.67
2023-05-19T01:11:13.525Z,100355.73
2023-05-19T01:12:15.784Z,100368.22
2023-05-19T01:13:18.416Z,100363.83
2023-05-19T01:14:20.893Z,100366.37
2023-05-19T01:15:24.987Z,100367.19
2023-05-19T01:16:31.154Z,100372.44
2023-05-19T01:19:02.362Z,100364.84
2023-05-19T01:20:18.077Z,100367.89
2023-05-19T01:21:39.358Z,100375.98
2023-05-19T01:24:25.588Z,100374.61
2023-05-19T01:25:52.580Z,100378.84
2023-05-19T01:27:20.907Z,100386.27
2023-05-19T01:28:43.677Z,100376.47
2023-05-19T01:30:16.687Z,100385.42
2023-05-19T01:31:21.119Z,100380.69
2023-05-19T01:32:23.651Z,100383.91
2023-05-19T01:33:28.837Z,100382.39
2023-05-19T01:34:31.096Z,100386.42
2023-05-19T01:35:36.082Z,100380.54
2023-05-19T01:36:41.237Z,100383.05
2023-05-19T01:37:43.583Z,100387.45
2023-05-19T01:38:49.444Z,100383.91
2023-05-19T01:39:51.892Z,100386.61
2023-05-19T01:40:55.868Z,100384.09
2023-05-19T01:42:00.065Z,100384.42
2023-05-19T01:43:04.639Z,100378.33
2023-05-19T01:44:07.498Z,100379.51
2023-05-19T01:45:10.789Z,100381.72
2023-05-19T01:47:24.239Z,100383.57
2023-05-19T01:48:28.684Z,100388.25
2023-05-19T01:49:32.956Z,100381.52
2023-05-19T01:50:35.480Z,100387.91
2023-05-19T01:51:38.145Z,100387.06
2023-05-19T01:52:40.931Z,100399.55
2023-05-19T01:53:44.250Z,100389.43
2023-05-19T01:54:46.740Z,100392.83
2023-05-19T01:55:51.363Z,100394.35
2023-05-19T01:58:40.164Z,100387.13
2023-05-19T01:59:58.009Z,100382.05
2023-05-19T02:01:23.843Z,100391.99
2023-05-19T02:02:33.712Z,100386.92
2023-05-19T02:05:09.857Z,100384.23
2023-05-19T02:06:28.401Z,100384.22
2023-05-19T02:07:43.452Z,100385.22
2023-05-19T02:09:00.812Z,100384.52
2023-05-19T02:11:28.812Z,100377.31
2023-05-19T02:12:41.088Z,100378.77
2023-05-19T02:13:44.617Z,100393.11
2023-05-19T02:15:09.581Z,100394.30
2023-05-19T02:16:12.968Z,100388.90
2023-05-19T02:17:15.931Z,100391.59
2023-05-19T02:18:19.071Z,100397.13
2023-05-19T02:20:42.995Z,100392.61
2023-05-19T02:21:45.100Z,100398.31
2023-05-19T02:22:47.703Z,100404.56
2023-05-19T02:23:50.660Z,100400.69
2023-05-19T02:24:54.840Z,100401.36
2023-05-19T02:25:57.018Z,100402.38
2023-05-19T02:26:59.666Z,100405.23
2023-05-19T02:28:01.969Z,100401.69
2023-05-19T02:29:05.074Z,100402.01
2023-05-19T02:30:09.637Z,100399.67
2023-05-19T02:31:12.163Z,100402.52
2023-05-19T02:32:15.021Z,100402.69
2023-05-19T02:33:17.931Z,100400.99
2023-05-19T02:34:20.126Z,100401.98
2023-05-19T02:35:22.336Z,100406.56
2023-05-19T02:36:24.548Z,100408.41
2023-05-19T02:37:26.755Z,100413.63
2023-05-19T02:38:28.905Z,100421.25
2023-05-19T02:39:31.171Z,100423.44
2023-05-19T02:40:33.723Z,100419.39
2023-05-19T02:41:37.445Z,100420.09
2023-05-19T02:42:39.712Z,100420.77
2023-05-19T02:43:42.416Z,100421.44
2023-05-19T02:44:46.060Z,100424.98
2023-05-19T02:45:48.314Z,100418.73
2023-05-19T02:46:50.970Z,100421.61
2023-05-19T02:47:54.416Z,100420.91
2023-05-19T02:48:57.032Z,100425.63
2023-05-19T02:49:59.279Z,100419.39
2023-05-19T02:51:02.010Z,100416.87
2023-05-19T02:52:06.949Z,100421.59
2023-05-19T02:53:09.309Z,100418.89
2023-05-19T02:54:12.681Z,100426.14
2023-05-19T02:55:15.041Z,100424.11
2023-05-19T02:56:19.043Z,100425.63
2023-05-19T02:57:21.289Z,100426.48
2023-05-19T02:58:23.582Z,100425.31
2023-05-19T02:59:25.922Z,100435.62
2023-05-19T03:00:28.814Z,100428.53
2023-05-19T03:01:31.228Z,100442.72
2023-05-19T03:02:33.616Z,100430.93
2023-05-19T03:03:36.201Z,100439.52
2023-05-19T03:04:38.721Z,100424.84
2023-05-19T03:05:42.018Z,100436.16
2023-05-19T03:06:44.934Z,100425.38
2023-05-19T03:07:47.431Z,100427.08
2023-05-19T03:08:50.511Z,100423.34
2023-05-19T03:09:52.676Z,100420.64
2023-05-19T03:10:55.410Z,100426.89
2023-05-19T03:11:58.143Z,100427.92
2023-05-19T03:13:00.562Z,100435.17
2023-05-19T03:14:02.747Z,100424.38
2023-05-19T03:15:06.384Z,100428.73
2023-05-19T03:16:09.412Z,100432.29
2023-05-19T03:17:11.488Z,100435.84
2023-05-19T03:18:14.007Z,100426.56
2023-05-19T03:19:17.471Z,100432.81
2023-05-19T03:20:19.950Z,100427.41
2023-05-19T03:21:22.332Z,100433.14
2023-05-19T03:22:24.654Z,100427.08
2023-05-19T03:23:26.971Z,100437.20
2023-05-19T03:25:45.247Z,100426.04
2023-05-19T03:26:48.233Z,100431.38
2023-05-19T03:27:50.705Z,100440.50
2023-05-19T03:28:52.928Z,100432.55
2023-05-19T03:29:55.258Z,100432.55
2023-05-19T03:30:58.915Z,100435.10
2023-05-19T03:32:05.158Z,100432.41
2023-05-19T03:33:08.106Z,100429.41
2023-05-19T03:34:10.878Z,100427.38
2023-05-19T03:35:13.159Z,100430.08
2023-05-19T03:36:15.783Z,100432.78
2023-05-19T03:37:18.000Z,100434.48
2023-05-19T03:38:22.832Z,100430.75
2023-05-19T03:39:26.969Z,100434.83
2023-05-19T03:40:31.628Z,100435.82
2023-05-19T03:41:36.515Z,100440.37
2023-05-19T03:42:39.096Z,100434.97
2023-05-19T03:43:41.712Z,100429.75
2023-05-19T03:44:45.068Z,100440.37
2023-05-19T03:45:48.059Z,100436.00
2023-05-19T03:46:55.500Z,100435.48
2023-05-19T03:47:59.754Z,100439.17
2023-05-19T03:50:25.834Z,100442.07
2023-05-19T03:51:30.427Z,100442.48
2023-05-19T03:52:34.558Z,100448.73
2023-05-19T03:53:41.728Z,100445.37
2023-05-19T03:54:44.289Z,100440.50
2023-05-19T03:55:46.392Z,100443.86
2023-05-19T03:56:49.303Z,100443.58
2023-05-19T03:57:52.973Z,100443.25
2023-05-19T03:58:55.327Z,100442.07
2023-05-19T03:59:57.525Z,100453.53
2023-05-19T04:01:00.145Z,100445.44
2023-05-19T04:02:02.958Z,100446.44
2023-05-19T04:03:05.934Z,100445.62
2023-05-19T04:04:09.072Z,100446.44
2023-05-19T04:05:11.397Z,100451.69
2023-05-19T04:06:14.811Z,100447.81
2023-05-19T04:07:18.006Z,100453.87
2023-05-19T04:08:20.755Z,100448.66
2023-05-19T04:09:23.108Z,100454.20
2023-05-19T04:10:25.543Z,100459.78
2023-05-19T04:11:29.799Z,100453.39
2023-05-19T04:12:33.696Z,100451.69
2023-05-19T04:13:36.029Z,100455.38
2023-05-19T04:14:38.531Z,100452.68
2023-05-19T04:15:40.735Z,100458.93
2023-05-19T04:16:44.937Z,100449.98
2023-05-19T04:17:47.956Z,100452.02
2023-05-19T04:18:50.187Z,100452.34
2023-05-19T04:19:53.555Z,100454.36
2023-05-19T04:20:58.801Z,100452.66
2023-05-19T04:22:01.166Z,100453.80
2023-05-19T04:23:03.463Z,100452.14
2023-05-19T04:24:08.115Z,100450.26
2023-05-19T04:25:10.544Z,100451.11
2023-05-19T04:26:14.486Z,100454.84
2023-05-19T04:27:16.953Z,100457.68
2023-05-19T04:28:19.751Z,100460.37
2023-05-19T04:29:22.204Z,100464.92
2023-05-19T04:30:24.797Z,100464.07
2023-05-19T04:31:27.227Z,100464.78
2023-05-19T04:32:29.827Z,100462.75
2023-05-19T04:33:32.699Z,100463.31
2023-05-19T04:34:35.563Z,100470.23
2023-05-19T04:35:39.167Z,100468.20
2023-05-19T04:36:41.640Z,100467.20
2023-05-19T04:37:44.634Z,100475.30
2023-05-19T04:38:47.606Z,100468.38
2023-05-19T04:39:50.625Z,100476.80
2023-05-19T04:40:54.471Z,100477.98
2023-05-19T04:41:56.775Z,100483.66
2023-05-19T04:42:59.272Z,100471.49
2023-05-19T04:44:02.036Z,100475.04
2023-05-19T04:45:05.983Z,100483.98
2023-05-19T04:46:13.445Z,100473.20
2023-05-19T04:47:15.911Z,100476.89
2023-05-19T04:48:18.194Z,100472.02
2023-05-19T04:49:20.804Z,100476.24
2023-05-19T04:50:23.568Z,100467.30
2023-05-19T04:51:26.838Z,100474.25
2023-05-19T04:52:29.551Z,100470.55
2023-05-19T04:53:31.974Z,100474.95
2023-05-19T04:54:35.214Z,100462.28
2023-05-19T04:55:38.817Z,100470.90
2023-05-19T04:56:42.038Z,100475.13
2023-05-19T04:57:44.455Z,100479.34
2023-05-19T04:58:47.934Z,100464.67
2023-05-19T04:59:50.490Z,100468.40
2023-05-19T05:00:54.813Z,100476.64
2023-05-19T05:01:57.762Z,100472.42
2023-05-19T05:03:00.573Z,100467.87
2023-05-19T05:04:05.160Z,100476.12
2023-05-19T05:05:08.929Z,100472.92
2023-05-19T05:06:12.016Z,100475.09
2023-05-19T05:07:14.388Z,100474.39
2023-05-19T05:08:17.793Z,100478.94
2023-05-19T05:09:20.493Z,100469.00
2023-05-19T05:10:26.002Z,100476.63
2023-05-19T05:11:30.038Z,100483.22
2023-05-19T05:12:33.776Z,100479.34
2023-05-19T05:13:37.665Z,100485.27
2023-05-19T05:14:41.506Z,100480.02
2023-05-19T05:15:45.175Z,100484.06
2023-05-19T05:16:49.625Z,100476.97
2023-05-19T05:17:54.280Z,100483.39
2023-05-19T05:18:57.898Z,100484.57
2023-05-19T05:20:01.894Z,100485.56
2023-05-19T05:21:07.031Z,100485.89
2023-05-19T05:22:10.201Z,100481.49
2023-05-19T05:23:14.810Z,100489.59
2023-05-19T05:24:19.402Z,100482.63
2023-05-19T05:25:24.553Z,100489.38
2023-05-19T05:26:30.003Z,100487.68
2023-05-19T05:27:32.378Z,100491.05
2023-05-19T05:28:34.608Z,100491.90
2023-05-19T05:29:37.242Z,100498.00
2023-05-19T05:30:40.976Z,100483.48
2023-05-19T05:31:43.165Z,100494.98
2023-05-19T05:32:47.122Z,100490.11
2023-05-19T05:33:54.715Z,100491.81
2023-05-19T05:34:58.961Z,100496.36
2023-05-19T05:36:01.259Z,100498.88
2023-05-19T05:37:05.278Z,100502.42
2023-05-19T05:38:08.443Z,100503.95
2023-05-19T05:39:11.586Z,100504.66
2023-05-19T05:40:16.319Z,100507.35
2023-05-19T05:41:19.657Z,100502.95
2023-05-19T05:42:22.465Z,100511.05
2023-05-19T05:43:24.967Z,100506.50
2023-05-19T05:44:29.205Z,100503.62
2023-05-19T05:45:31.953Z,100511.58
2023-05-19T05:46:35.844Z,100510.05
2023-05-19T05:47:39.693Z,100519.14
2023-05-19T05:48:44.235Z,100518.30
2023-05-19T05:49:48.355Z,100522.16
2023-05-19T05:50:52.223Z,100519.64
2023-05-19T05:52:05.879Z,100518.94
2023-05-19T05:53:03.576Z,100517.95
2023-05-19T05:54:07.370Z,100523.34
2023-05-19T05:55:13.311Z,100520.47
2023-05-19T05:56:18.832Z,100521.17
2023-05-19T05:57:23.046Z,100520.00
2023-05-19T05:58:25.347Z,100521.52
2023-05-19T05:59:27.923Z,100524.89
2023-05-19T06:00:30.608Z,100523.72
2023-05-19T06:01:35.519Z,100520.55
2023-05-19T06:02:39.056Z,100521.22
2023-05-19T06:03:43.276Z,100529.81
2023-05-19T06:04:46.249Z,100520.56
2023-05-19T06:05:48.412Z,100521.23
2023-05-19T06:06:50.711Z,100518.36
2023-05-19T06:07:55.984Z,100520.06
2023-05-19T06:09:01.194Z,100523.43
2023-05-19T06:10:05.517Z,100524.46
2023-05-19T06:11:08.567Z,100518.22
2023-05-19T06:12:11.621Z,100521.06
2023-05-19T06:13:15.754Z,100522.91
2023-05-19T06:14:18.047Z,100521.77
2023-05-19T06:16:32.446Z,100528.02
2023-05-19T06:17:35.385Z,100527.18
2023-05-19T06:18:38.788Z,100527.52
2023-05-19T06:19:41.451Z,100527.87
2023-05-19T06:20:44.163Z,100526.87
2023-05-19T06:21:46.471Z,100531.91
2023-05-19T06:22:48.664Z,100530.58
2023-05-19T06:23:52.327Z,100528.40
2023-05-19T06:24:54.738Z,100533.28
2023-05-19T06:25:57.295Z,100521.30
2023-05-19T06:27:00.039Z,100526.38
2023-05-19T06:28:02.935Z,100520.64
2023-05-19T06:29:05.188Z,100520.16
2023-05-19T06:30:08.795Z,100530.62
2023-05-19T06:31:14.089Z,100526.74
2023-05-19T06:32:24.971Z,100527.08
2023-05-19T06:33:29.140Z,100526.41
2023-05-19T06:34:32.464Z,100527.77
2023-05-19T06:35:36.153Z,100528.25
2023-05-19T06:36:39.426Z,100524.37
2023-05-19T06:37:41.808Z,100526.92
2023-05-19T06:38:44.077Z,100533.17
2023-05-19T06:39:47.265Z,100534.17
2023-05-19T06:40:49.563Z,100535.17
2023-05-19T06:41:51.864Z,100532.32
2023-05-19T06:43:02.489Z,100534.84
2023-05-19T06:45:28.229Z,100527.41
2023-05-19T06:46:32.319Z,100528.42
2023-05-19T06:47:34.902Z,100533.65
2023-05-19T06:48:37.230Z,100538.23
2023-05-19T06:49:39.963Z,100529.09
2023-05-19T06:50:43.004Z,100529.09
2023-05-19T06:51:45.308Z,100528.42
2023-05-19T06:52:47.591Z,100533.65
2023-05-19T06:53:49.945Z,100534.50
2023-05-19T06:56:01.345Z,100535.19
2023-05-19T06:57:05.485Z,100534.02
2023-05-19T06:58:07.961Z,100532.13
2023-05-19T06:59:10.500Z,100531.98
2023-05-19T07:00:17.961Z,100537.05
2023-05-19T07:01:21.802Z,100539.56
2023-05-19T07:02:26.614Z,100542.12
2023-05-19T07:03:29.241Z,100536.52
2023-05-19T07:04:31.504Z,100547.16
2023-05-19T07:05:35.844Z,100544.45
2023-05-19T07:06:38.668Z,100548.86
2023-05-19T07:07:41.784Z,100548.70
2023-05-19T07:08:47.454Z,100547.52
2023-05-19T07:09:55.041Z,100553.59
2023-05-19T07:10:57.400Z,100546.14
2023-05-19T07:11:59.675Z,100540.39
2023-05-19T07:13:02.735Z,100541.75
2023-05-19T07:14:06.879Z,100543.92
2023-05-19T07:15:09.565Z,100543.59
2023-05-19T07:16:16.442Z,100547.62
2023-05-19T07:17:23.042Z,100538.19
2023-05-19T07:18:27.840Z,100541.22
2023-05-19T07:19:31.197Z,100541.87
2023-05-19T07:20:34.357Z,100549.65
2023-05-19T07:21:38.269Z,100544.23
2023-05-19T07:22:41.461Z,100549.30
2023-05-19T07:23:44.571Z,100552.67
2023-05-19T07:24:46.957Z,100549.28
2023-05-19T07:25:49.571Z,100554.34
2023-05-19T07:26:54.884Z,100555.67
2023-05-19T07:27:57.074Z,100546.20
2023-05-19T07:28:59.266Z,100553.78
2023-05-19T07:30:02.621Z,100558.69
2023-05-19T07:31:05.199Z,100553.59
2023-05-19T07:32:07.337Z,100555.75
2023-05-19T07:33:09.891Z,100551.84
2023-05-19T07:34:12.761Z,100557.77
2023-05-19T07:36:26.633Z,100551.42
2023-05-19T07:37:29.333Z,100550.45
2023-05-19T07:38:31.861Z,100554.12
2023-05-19T07:39:35.273Z,100557.86
2023-05-19T07:40:39.316Z,100551.35
2023-05-19T07:41:41.530Z,100556.72
2023-05-19T07:42:43.753Z,100550.08
2023-05-19T07:43:46.022Z,100554.39
2023-05-19T07:44:48.276Z,100546.03
2023-05-19T07:45:50.684Z,100547.47
2023-05-19T07:46:54.818Z,100541.78
2023-05-19T07:47:57.711Z,100539.88
2023-05-19T07:49:00.026Z,100538.59
2023-05-19T07:50:03.032Z,100538.52
2023-05-19T07:51:05.320Z,100537.42
2023-05-19T07:52:07.504Z,100534.81
2023-05-19T07:53:09.956Z,100540.33
2023-05-19T07:54:12.043Z,100533.31
2023-05-19T07:55:15.218Z,100543.80
2023-05-19T07:56:17.697Z,100540.72
2023-05-19T07:57:20.022Z,100540.14
2023-05-19T07:58:22.381Z,100545.20
2023-05-19T08:00:34.013Z,100544.67
2023-05-19T08:01:36.843Z,100544.97
2023-05-19T08:02:40.244Z,100547.31
2023-05-19T08:03:42.627Z,100540.46
2023-05-19T08:04:46.280Z,100540.94
2023-05-19T08:05:48.619Z,100551.22
2023-05-19T08:06:51.022Z,100554.20
2023-05-19T08:07:53.139Z,100552.17
2023-05-19T08:08:56.606Z,100546.53
2023-05-19T08:09:58.743Z,100550.74
2023-05-19T08:11:04.852Z,100547.66
2023-05-19T08:12:09.165Z,100552.88
2023-05-19T08:13:11.639Z,100554.41
2023-05-19T08:14:14.012Z,100547.92
2023-05-19T08:15:16.162Z,100546.90
2023-05-19T08:17:28.187Z,100553.81
2023-05-19T08:18:30.813Z,100543.23
2023-05-19T08:19:33.003Z,100546.58
2023-05-19T08:20:35.622Z,100547.91
2023-05-19T08:21:40.703Z,100545.66
2023-05-19T08:22:44.538Z,100550.51
2023-05-19T08:23:48.132Z,100553.02
2023-05-19T08:24:50.451Z,100546.56
2023-05-19T08:27:06.206Z,100544.02
2023-05-19T08:28:08.705Z,100553.95
2023-05-19T08:29:11.217Z,100552.77
2023-05-19T08:30:14.510Z,100553.61
2023-05-19T08:31:16.964Z,100548.98
2023-05-19T08:32:20.501Z,100549.83
2023-05-19T08:33:22.788Z,100549.66
2023-05-19T08:34:24.932Z,100545.72
2023-05-19T08:35:27.204Z,100550.56
2023-05-19T08:36:30.085Z,100549.97
2023-05-19T08:37:34.425Z,100550.44
2023-05-19T08:38:36.831Z,100548.36
2023-05-19T08:39:38.961Z,100552.77
2023-05-19T08:40:42.085Z,100547.12
2023-05-19T08:41:44.444Z,100547.98
2023-05-19T08:42:47.158Z,100552.39
2023-05-19T08:43:50.543Z,100550.52
2023-05-19T08:44:53.058Z,100549.46
2023-05-19T08:46:15.175Z,100549.46
2023-05-19T08:47:18.443Z,100549.46
2023-05-19T08:48:22.010Z,100553.41
2023-05-19T08:49:26.494Z,100551.75
2023-05-19T08:51:56.606Z,100546.74
2023-05-19T08:54:30.046Z,100554.27
2023-05-19T08:55:50.832Z,100547.84
2023-05-19T08:56:53.716Z,100558.92
2023-05-19T08:57:56.454Z,100556.38
2023-05-19T08:58:59.688Z,100556.38
2023-05-19T09:00:03.710Z,100556.38
2023-05-19T09:01:07.403Z,100562.02
2023-05-19T09:02:14.862Z,100556.76
2023-05-19T09:03:24.039Z,100563.25
2023-05-19T09:04:27.609Z,100558.63
2023-05-19T09:05:33.949Z,100565.77
2023-05-19T09:06:37.151Z,100561.17
2023-05-19T09:07:40.927Z,100552.00
2023-05-19T09:08:44.414Z,100554.51
2023-05-19T09:09:46.696Z,100553.28
2023-05-19T09:10:54.532Z,100560.41
2023-05-19T09:12:01.543Z,100560.41
2023-05-19T09:13:05.541Z,100561.05
2023-05-19T09:14:11.737Z,100561.90
2023-05-19T09:16:32.245Z,100553.88
2023-05-19T09:17:35.495Z,100548.95
2023-05-19T09:18:38.860Z,100564.03
2023-05-19T09:19:45.403Z,100549.20
2023-05-19T09:20:49.636Z,100552.39
2023-05-19T09:22:07.717Z,100556.80
2023-05-19T09:23:14.970Z,100559.91
2023-05-19T09:24:17.565Z,100554.85
2023-05-19T09:25:23.496Z,100554.00
2023-05-19T09:26:39.307Z,100557.57
2023-05-19T09:29:00.350Z,100552.91
2023-05-19T09:30:08.788Z,100550.95
2023-05-19T09:31:15.756Z,100551.41
2023-05-19T09:32:28.599Z,100554.21
2023-05-19T09:33:35.130Z,100546.48
2023-05-19T09:34:41.201Z,100546.94
2023-05-19T09:35:49.735Z,100553.87
2023-05-19T09:36:54.025Z,100544.86
2023-05-19T09:37:58.532Z,100546.38
2023-05-19T09:39:07.140Z,100543.45
2023-05-19T09:40:14.828Z,100542.22
2023-05-19T09:41:17.859Z,100544.55
2023-05-19T09:42:29.694Z,100537.87
2023-05-19T09:43:33.828Z,100543.77
2023-05-19T09:44:39.144Z,100534.19
2023-05-19T09:45:43.323Z,100545.31
2023-05-19T09:46:58.931Z,100528.81
2023-05-19T09:48:03.871Z,100533.86
2023-05-19T09:49:09.169Z,100540.97
2023-05-19T09:50:12.620Z,100545.17
2023-05-19T09:51:22.180Z,100542.27
2023-05-19T09:52:25.012Z,100544.15
2023-05-19T09:53:29.623Z,100540.58
2023-05-19T09:54:33.796Z,100535.92
2023-05-19T09:55:36.042Z,100536.52
2023-05-19T09:56:38.655Z,100548.43
2023-05-19T09:57:51.238Z,100541.12
2023-05-19T09:58:56.442Z,100546.95
2023-05-19T10:00:01.845Z,100541.50
2023-05-19T10:01:09.174Z,100546.55
2023-05-19T10:02:17.448Z,100550.77
2023-05-19T10:03:23.100Z,100538.46
2023-05-19T10:04:30.830Z,100545.17
2023-05-19T10:05:33.451Z,100542.06
2023-05-19T10:06:37.470Z,100538.95
2023-05-19T10:07:42.142Z,100553.86
2023-05-19T10:08:54.086Z,100545.30
2023-05-19T10:10:01.809Z,100545.72
2023-05-19T10:11:16.110Z,100540.09
2023-05-19T10:12:27.716Z,100545.33
2023-05-19T10:13:33.185Z,100548.05
2023-05-19T10:14:38.816Z,100547.41
2023-05-19T10:16:59.243Z,100533.86
2023-05-19T10:18:03.304Z,100536.86
2023-05-19T10:19:07.472Z,100536.23
2023-05-19T10:20:14.480Z,100533.50
2023-05-19T10:21:17.328Z,100530.15
2023-05-19T10:22:19.874Z,100537.68
2023-05-19T10:23:26.020Z,100535.80
2023-05-19T10:24:28.336Z,100534.95
2023-05-19T10:25:35.538Z,100528.84
2023-05-19T10:26:47.012Z,100538.25
2023-05-19T10:28:11.843Z,100540.55
2023-05-19T10:29:18.845Z,100539.70
2023-05-19T10:31:40.401Z,100525.97
2023-05-19T10:34:00.605Z,100523.47
2023-05-19T10:35:29.220Z,100525.25
2023-05-19T10:36:47.176Z,100533.62
2023-05-19T10:38:04.577Z,100525.84
2023-05-19T10:39:14.038Z,100522.46
2023-05-19T10:42:02.222Z,100533.66
2023-05-19T10:43:20.304Z,100534.83
2023-05-19T10:44:44.358Z,100520.66
2023-05-19T10:47:02.293Z,100535.66
2023-05-19T10:48:06.525Z,100538.70
2023-05-19T10:49:08.824Z,100536.20
2023-05-19T10:50:12.977Z,100540.16
2023-05-19T10:51:16.085Z,100542.59
2023-05-19T10:53:32.646Z,100525.03
2023-05-19T10:54:43.698Z,100534.12
2023-05-19T10:55:55.072Z,100536.17
2023-05-19T10:56:57.913Z,100541.83
2023-05-19T10:58:00.653Z,100539.95
2023-05-19T10:59:03.554Z,100539.56
2023-05-19T11:00:29.635Z,100537.87
2023-05-19T11:01:33.752Z,100531.58
2023-05-19T11:02:41.841Z,100530.73
2023-05-19T11:05:14.494Z,100524.52
2023-05-19T11:06:31.716Z,100527.77
2023-05-19T11:07:34.092Z,100535.75
2023-05-19T11:08:37.373Z,100539.74
2023-05-19T11:09:43.697Z,100537.23
2023-05-19T11:10:46.261Z,100532.18
2023-05-19T11:11:51.259Z,100538.64
2023-05-19T11:14:12.030Z,100528.16
2023-05-19T11:15:14.765Z,100529.91
2023-05-19T11:16:31.464Z,100534.50
2023-05-19T11:17:35.370Z,100530.77
2023-05-19T11:18:38.981Z,100533.09
2023-05-19T11:19:53.693Z,100529.14
2023-05-19T11:21:00.697Z,100529.98
2023-05-19T11:22:11.670Z,100533.55
2023-05-19T11:23:17.897Z,100527.91
2023-05-19T11:24:40.932Z,100530.62
2023-05-19T11:25:47.983Z,100538.39
2023-05-19T11:26:53.097Z,100530.88
2023-05-19T11:27:56.099Z,100532.56
2023-05-19T11:28:58.552Z,100529.64
2023-05-19T11:30:10.659Z,100534.05
2023-05-19T11:31:13.939Z,100529.45
2023-05-19T11:32:18.118Z,100543.23
2023-05-19T11:33:21.105Z,100537.80
2023-05-19T11:34:24.467Z,100530.48
2023-05-19T11:35:27.226Z,100546.80
2023-05-19T11:36:30.193Z,100540.34
2023-05-19T11:37:32.849Z,100536.98
2023-05-19T11:38:35.248Z,100536.98
2023-05-19T11:39:40.435Z,100538.86
2023-05-19T11:42:05.785Z,100529.92
2023-05-19T11:43:10.305Z,100540.66
2023-05-19T11:44:12.424Z,100536.91
2023-05-19T11:45:14.678Z,100531.47
2023-05-19T11:46:18.363Z,100539.42
2023-05-19T11:47:21.402Z,100539.24
2023-05-19T11:48:24.346Z,100543.45
2023-05-19T11:49:29.652Z,100538.01
2023-05-19T11:50:32.543Z,100542.42
2023-05-19T11:51:36.038Z,100542.22
2023-05-19T11:52:42.413Z,100547.86
2023-05-19T11:53:45.417Z,100542.81
2023-05-19T11:54:48.288Z,100544.86
2023-05-19T11:55:51.525Z,100553.87
2023-05-19T11:56:54.276Z,100550.30
2023-05-19T11:59:13.372Z,100549.73
2023-05-19T12:00:22.428Z,100545.13
2023-05-19T12:01:27.344Z,100552.85
2023-05-19T12:02:29.976Z,100550.31
2023-05-19T12:03:34.936Z,100545.72
2023-05-19T12:04:38.355Z,100549.28
2023-05-19T12:05:46.660Z,100550.14
2023-05-19T12:06:50.538Z,100548.23
2023-05-19T12:07:53.107Z,100551.63
2023-05-19T12:08:55.390Z,100548.23
2023-05-19T12:10:00.559Z,100544.23
2023-05-19T12:11:02.853Z,100539.77
2023-05-19T12:12:05.435Z,100556.84
2023-05-19T12:13:08.295Z,100548.87
2023-05-19T12:14:12.161Z,100546.15
2023-05-19T12:15:14.828Z,100551.41
2023-05-19T12:17:32.174Z,100544.62
2023-05-19T12:18:38.622Z,100539.69
2023-05-19T12:19:42.941Z,100540.53
2023-05-19T12:20:47.356Z,100548.05
2023-05-19T12:21:49.566Z,100536.50
2023-05-19T12:22:53.467Z,100537.73
2023-05-19T12:23:56.313Z,100531.45
2023-05-19T12:24:59.943Z,100544.40
2023-05-19T12:27:25.118Z,100531.92
2023-05-19T12:28:29.910Z,100534.46
2023-05-19T12:29:32.263Z,100531.95
2023-05-19T12:30:35.901Z,100543.64
2023-05-19T12:31:38.752Z,100534.84
2023-05-19T12:32:42.106Z,100534.84
2023-05-19T12:33:48.056Z,100530.26
2023-05-19T12:34:51.413Z,100534.46
2023-05-19T12:35:54.847Z,100533.44
2023-05-19T12:36:57.660Z,100539.90
2023-05-19T12:38:06.505Z,100538.87
2023-05-19T12:40:18.686Z,100537.56
2023-05-19T12:41:21.388Z,100529.23
2023-05-19T12:42:24.843Z,100538.41
2023-05-19T12:43:27.349Z,100538.20
2023-05-19T12:44:29.543Z,100530.26
2023-05-19T12:45:39.603Z,100529.41
2023-05-19T12:46:44.020Z,100533.15
2023-05-19T12:47:48.400Z,100530.26
2023-05-19T12:50:07.478Z,100531.02
2023-05-19T12:51:11.473Z,100535.05
2023-05-19T12:52:13.964Z,100536.54
2023-05-19T12:53:16.506Z,100534.46
2023-05-19T12:55:35.143Z,100540.53
2023-05-19T12:56:37.585Z,100543.76
2023-05-19T12:57:42.131Z,100541.22
2023-05-19T12:58:44.610Z,100542.03
2023-05-19T12:59:46.947Z,100537.65
2023-05-19T13:00:49.801Z,100546.82
2023-05-19T13:01:59.311Z,100548.05